EGHQ

Newquay Cornwall Airport

Newquay, United Kingdom
TAF EGHQ 171057Z 1712/1721 17014KT 9999 SCT045 BECMG 1714/1717 18018G28KT PROB40 TEMPO 1715/1718 7000 SHRA BKN014
Issued Valid From Valid To
Dec-17 @ 10:57 UTC
(2 hours ago)
Dec-17 @ 12:00 UTC
(46 minutes ago)
Dec-17 @ 21:00 UTC
(in 8 hours)
Dec-17 @ 12:00 to Dec-17 @ 14:00
TAF EGHQ 171057Z 1712/1721 17014KT 9999 SCT045
Wind Visibility Clouds
170° at 14 knots 10,000+ meters
  • Scattered at 4,500' AGL
Becoming Dec-17 @ 14:00 to Dec-17 @ 21:00
BECMG 1714/1717 18018G28KT
Wind Visibility Clouds
180° at 18 knots
 Gusting to 28 knots
10,000+ meters
  • Scattered at 4,500' AGL
Temporary  (Probability 40%) Dec-17 @ 15:00 to Dec-17 @ 18:00
PROB40 TEMPO 1715/1718 7000 SHRA BKN014
Visibility Clouds Conditions
7,001 meters
  • Broken at 1,400' AGL
  • Rain
TAF EGHQ 171057Z 1712/1721 17014KT 9999 SCT045 BECMG 1714/1717 18018G28KT PROB40 TEMPO 1715/1718 7000 SHRA BKN014
Issued Dec-17 @ 10:57 UTC
(2 hours ago)
Valid From Dec-17 @ 12:00 UTC
(46 minutes ago)
Valid To Dec-17 @ 21:00 UTC
(in 8 hours)
Dec-17 @ 12:00 - Dec-17 @ 14:00
Wind Visibility
170° at 14 knots 10,000+ meters
Clouds
  • Scattered at 4,500' AGL
Becoming Dec-17 @ 14:00 - Dec-17 @ 21:00
Wind Visibility
180° at 18 knots
 Gusting to 28 knots
10,000+ meters
Clouds
  • Scattered at 4,500' AGL
Probability 40% Temporary Dec-17 @ 15:00 - Dec-17 @ 18:00
Clouds
  • Broken at 1,400' AGL
Conditions
  • Rain